首页
METAR-TAF:

METAR-TAF

机场 :

卡尔加里国际机场

卡尔加里, 艾伯塔, 加拿大

纬度: 51-07N, 经度: 114-01W, 海拔: 1077米

当前天气观测

该预报发布于1小时和10分钟前的16:00 UTC
风速3节,风向南转西南
温度 -6°C
湿度 93%
气压 1020 hPa
能見度: 64.4公里
天空无云

METAR: CYYC 201600Z 21003KT 40SM SKC M06/M07 A3013 RMK SLP263

时间: 10:10 (17:10 UTC)

预报

该预报发布于2小时和30分钟前的14:40 UTC
预报有效从20日的 15点(UTC)到 21日的 12点(UTC)
风速5节,风向西转西北
能見度: 10公里
少量云层高于4000英尺
短暂存在
从 20日的 15点(UTC)到 20日的 16点(UTC)
能見度: 6.4公里
轻雾
从 20日的 1700点(UTC)
风速6节,风向西
能見度: 10公里
天空无云
成为
从 20日的 20点(UTC)到 20日的 22点(UTC)
风速8节,风向西南
从 21日的 0200点(UTC)
风速5节,风向西南
能見度: 10公里
天空无云
成为
从 21日的 04点(UTC)到 21日的 06点(UTC)
风速6节,风向西

TAF: CYYC 201440Z 2015/2112 30005KT P6SM FEW040 TEMPO 2015/2016 4SM BR FM201700 27006KT P6SM SKC BECMG 2020/2022 23008KT FM210200 22005KT P6SM SKC BECMG 2104/2106 26006KT RMK NXT FCST BY 201800Z

超过4000个机场的气象观测和天气预报(METAR&TAF报告)。

可查询的气象台以黄色和红色小点在地图上表示。

将鼠标移到小点上方,可查看气象台名称。

然后点击查看天气观测和预报。

如需切换地图:点击带黑十字的绿色按钮放大地图;点击带横线的绿色按钮缩小地图;或者点击绿色箭头查看邻近地区的地图。


METAR-TAF: